createdAt,value
2022-08-28T00:08:39.501Z,64.66
2022-08-28T00:19:11.391Z,64.58
2022-08-28T00:29:42.305Z,64.56
2022-08-28T00:40:13.523Z,64.72
2022-08-28T01:01:15.729Z,65.27
2022-08-28T01:11:47.250Z,65.59
2022-08-28T01:22:15.136Z,66.47
2022-08-28T01:32:49.835Z,66.52
2022-08-28T01:43:15.690Z,66.07
2022-08-28T01:53:47.322Z,65.67
2022-08-28T02:04:17.785Z,65.63
2022-08-28T02:14:48.251Z,65.44
2022-08-28T02:25:19.181Z,65.80
2022-08-28T02:35:51.259Z,65.98
2022-08-28T02:46:21.213Z,65.63
2022-08-28T02:56:52.221Z,65.52
2022-08-28T03:07:23.086Z,65.44
2022-08-28T03:17:55.248Z,65.76
2022-08-28T03:28:22.665Z,66.03
2022-08-28T03:38:54.559Z,65.61
2022-08-28T03:49:23.682Z,66.36
2022-08-28T03:59:55.663Z,67.19
2022-08-28T04:10:24.697Z,67.96
2022-08-28T04:21:03.769Z,67.84
2022-08-28T04:31:31.935Z,67.56
2022-08-28T04:42:03.466Z,67.77
2022-08-28T04:52:27.896Z,67.93
2022-08-28T05:03:00.156Z,69.44
2022-08-28T05:13:28.602Z,70.26
2022-08-28T05:24:00.453Z,70.46
2022-08-28T05:34:30.594Z,70.94
2022-08-28T05:45:03.427Z,70.97
2022-08-28T05:55:31.806Z,70.10
2022-08-28T06:06:04.429Z,68.99
2022-08-28T06:16:32.687Z,69.10
2022-08-28T06:27:03.373Z,68.73
2022-08-28T06:37:33.518Z,67.52
2022-08-28T06:48:04.387Z,67.17
2022-08-28T06:58:35.621Z,67.02
2022-08-28T07:09:08.646Z,66.29
2022-08-28T07:19:36.625Z,65.43
2022-08-28T07:30:09.034Z,65.11
2022-08-28T07:40:37.614Z,65.00
2022-08-28T07:51:11.401Z,64.52
2022-08-28T08:01:39.910Z,63.08
2022-08-28T08:12:13.415Z,62.09
2022-08-28T08:22:40.588Z,61.70
2022-08-28T08:33:11.288Z,61.52
2022-08-28T08:43:41.759Z,61.77
2022-08-28T08:54:16.865Z,61.46
2022-08-28T09:04:42.643Z,61.19
2022-08-28T09:25:50.856Z,61.24
2022-08-28T09:46:47.538Z,61.54
2022-08-28T09:57:18.182Z,61.12
2022-08-28T10:07:46.804Z,61.23
2022-08-28T10:29:09.019Z,61.16
2022-08-28T10:39:57.866Z,60.82
2022-08-28T10:50:26.813Z,60.97
2022-08-28T11:00:55.844Z,60.54
2022-08-28T11:11:24.534Z,60.07
2022-08-28T11:22:02.022Z,59.11
2022-08-28T11:53:57.507Z,59.52
2022-08-28T12:04:54.050Z,59.40
2022-08-28T12:15:22.486Z,58.71
2022-08-28T12:26:21.261Z,59.04
2022-08-28T12:36:55.411Z,57.92
2022-08-28T12:47:26.002Z,58.54
2022-08-28T12:57:58.552Z,59.00
2022-08-28T13:08:31.740Z,57.87
2022-08-28T13:18:59.431Z,57.68
2022-08-28T13:29:32.310Z,57.43
2022-08-28T13:39:59.530Z,58.52
2022-08-28T13:50:32.405Z,59.43
2022-08-28T14:01:01.616Z,60.68
2022-08-28T14:11:34.746Z,61.72
2022-08-28T14:22:02.517Z,62.66
2022-08-28T14:43:10.922Z,64.45
2022-08-28T14:53:38.723Z,63.31
2022-08-28T15:04:11.432Z,65.13
2022-08-28T15:14:38.390Z,65.53
2022-08-28T15:25:24.348Z,65.79
2022-08-28T15:36:06.401Z,66.13
2022-08-28T15:46:38.034Z,66.29
2022-08-28T15:57:08.417Z,67.00
2022-08-28T16:07:39.398Z,67.14
2022-08-28T16:18:09.828Z,67.04
2022-08-28T16:28:42.097Z,67.37
2022-08-28T16:39:12.071Z,67.44
2022-08-28T16:49:43.136Z,67.84
2022-08-28T17:00:15.557Z,68.37
2022-08-28T17:10:47.917Z,69.26
2022-08-28T17:21:27.670Z,69.89
2022-08-28T17:32:12.020Z,70.17
2022-08-28T17:42:39.669Z,70.62
2022-08-28T17:53:19.444Z,70.55
2022-08-28T18:03:53.111Z,70.40
2022-08-28T18:14:20.132Z,69.80
2022-08-28T18:24:54.784Z,69.74
2022-08-28T18:35:17.795Z,70.10
2022-08-28T18:46:00.712Z,70.34
2022-08-28T18:56:32.041Z,70.58
2022-08-28T19:07:01.747Z,70.56
2022-08-28T19:17:33.723Z,70.13
2022-08-28T19:28:06.409Z,69.90
2022-08-28T19:38:36.104Z,69.72
2022-08-28T19:49:07.957Z,69.98
2022-08-28T19:59:38.227Z,70.08
2022-08-28T20:10:09.119Z,70.14
2022-08-28T20:20:38.425Z,70.36
2022-08-28T20:31:13.249Z,70.58
2022-08-28T20:41:43.354Z,70.69
2022-08-28T20:52:12.477Z,70.72
2022-08-28T21:02:41.471Z,70.74
2022-08-28T21:13:10.992Z,71.05
2022-08-28T21:23:41.899Z,71.17
2022-08-28T21:34:11.504Z,71.11
2022-08-28T21:44:40.969Z,71.46
2022-08-28T21:55:18.383Z,71.86
2022-08-28T22:05:49.170Z,72.16
2022-08-28T22:16:18.268Z,72.32
2022-08-28T22:26:47.836Z,72.60
2022-08-28T22:37:17.161Z,72.57
2022-08-28T22:47:46.510Z,72.54
2022-08-28T22:58:15.615Z,72.76
2022-08-28T23:08:44.957Z,72.96
2022-08-28T23:19:14.106Z,72.75
2022-08-28T23:29:43.507Z,72.92
2022-08-28T23:40:16.593Z,72.85
2022-08-28T23:50:46.821Z,72.89
